createdAt,value
2022-10-24T00:00:36.864Z,1008.22
2022-10-24T00:01:36.830Z,1008.18
2022-10-24T00:02:36.824Z,1008.11
2022-10-24T00:03:36.822Z,1008.13
2022-10-24T00:04:36.813Z,1008.16
2022-10-24T00:05:36.728Z,1008.20
2022-10-24T00:06:36.759Z,1008.20
2022-10-24T00:07:36.724Z,1008.19
2022-10-24T00:08:36.692Z,1008.20
2022-10-24T00:09:36.731Z,1008.13
2022-10-24T00:10:36.750Z,1008.20
2022-10-24T00:11:36.671Z,1008.16
2022-10-24T00:12:36.660Z,1008.22
2022-10-24T00:13:36.651Z,1008.20
2022-10-24T00:14:36.716Z,1008.17
2022-10-24T00:15:36.620Z,1008.19
2022-10-24T00:16:36.629Z,1008.30
2022-10-24T00:17:36.620Z,1008.15
2022-10-24T00:18:36.609Z,1008.20
2022-10-24T00:19:36.608Z,1008.25
2022-10-24T00:20:36.605Z,1008.23
2022-10-24T00:21:36.603Z,1008.25
2022-10-24T00:22:36.605Z,1008.27
2022-10-24T00:23:36.564Z,1008.28
2022-10-24T00:24:36.547Z,1008.27
2022-10-24T00:25:36.515Z,1008.29
2022-10-24T00:26:36.523Z,1008.34
2022-10-24T00:27:36.559Z,1008.37
2022-10-24T00:28:36.509Z,1008.36
2022-10-24T00:29:36.557Z,1008.37
2022-10-24T00:30:36.462Z,1008.38
2022-10-24T00:31:36.467Z,1008.41
2022-10-24T00:32:36.474Z,1008.38
2022-10-24T00:33:36.434Z,1008.42
2022-10-24T00:34:36.447Z,1008.36
2022-10-24T00:35:36.427Z,1008.35
2022-10-24T00:36:36.439Z,1008.39
2022-10-24T00:37:36.389Z,1008.39
2022-10-24T00:38:36.419Z,1008.38
2022-10-24T00:39:36.471Z,1008.34
2022-10-24T00:40:36.395Z,1008.25
2022-10-24T00:41:36.398Z,1008.28
2022-10-24T00:42:36.375Z,1008.37
2022-10-24T00:43:36.436Z,1008.33
2022-10-24T00:44:36.327Z,1008.24
2022-10-24T00:46:36.321Z,1008.25
2022-10-24T00:47:36.317Z,1008.23
2022-10-24T00:48:36.269Z,1008.22
2022-10-24T00:49:36.297Z,1008.13
2022-10-24T00:50:36.248Z,1008.16
2022-10-24T00:51:36.243Z,1008.13
2022-10-24T00:52:36.259Z,1008.17
2022-10-24T00:53:36.217Z,1008.13
2022-10-24T00:54:36.279Z,1008.12
2022-10-24T00:55:36.192Z,1008.08
2022-10-24T00:56:36.340Z,1008.18
2022-10-24T00:57:36.178Z,1008.11
2022-10-24T00:58:36.184Z,1008.09
2022-10-24T00:59:36.157Z,1008.04
2022-10-24T01:00:36.201Z,1008.08
2022-10-24T01:01:36.165Z,1007.99
2022-10-24T01:02:36.109Z,1008.01
2022-10-24T01:03:36.132Z,1007.93
2022-10-24T01:04:36.143Z,1008.01
2022-10-24T01:05:36.095Z,1007.99
2022-10-24T01:06:36.083Z,1007.96
2022-10-24T01:07:36.081Z,1007.90
2022-10-24T01:08:36.137Z,1007.87
2022-10-24T01:09:36.105Z,1007.89
2022-10-24T01:11:36.083Z,1007.84
2022-10-24T01:12:36.048Z,1007.83
2022-10-24T01:13:36.067Z,1007.85
2022-10-24T01:14:36.006Z,1007.86
2022-10-24T01:15:35.985Z,1007.86
2022-10-24T01:16:35.954Z,1007.82
2022-10-24T01:17:35.974Z,1007.80
2022-10-24T01:18:35.939Z,1007.80
2022-10-24T01:19:35.956Z,1007.84
2022-10-24T01:20:35.973Z,1007.80
2022-10-24T01:21:35.925Z,1007.77
2022-10-24T01:22:35.967Z,1007.80
2022-10-24T01:23:35.886Z,1007.77
2022-10-24T01:24:35.919Z,1007.79
2022-10-24T01:25:35.912Z,1007.75
2022-10-24T01:26:35.878Z,1007.68
2022-10-24T01:27:35.859Z,1007.80
2022-10-24T01:28:35.913Z,1007.77
2022-10-24T01:29:35.833Z,1007.82
2022-10-24T01:30:35.815Z,1007.79
2022-10-24T01:31:35.812Z,1007.79
2022-10-24T01:32:35.780Z,1007.73
2022-10-24T01:33:35.790Z,1007.64
2022-10-24T01:34:35.760Z,1007.59
2022-10-24T01:35:35.764Z,1007.57
2022-10-24T01:36:35.729Z,1007.53
2022-10-24T01:37:35.735Z,1007.50
2022-10-24T01:38:35.700Z,1007.48
2022-10-24T01:39:35.691Z,1007.38
2022-10-24T01:40:35.711Z,1007.35
2022-10-24T01:41:35.688Z,1007.35
2022-10-24T01:42:35.669Z,1007.31
2022-10-24T01:43:35.704Z,1007.27
2022-10-24T01:44:35.639Z,1007.17
2022-10-24T01:45:35.617Z,1007.18
2022-10-24T01:46:35.649Z,1007.02
2022-10-24T01:47:35.638Z,1007.02
2022-10-24T01:48:35.594Z,1007.01
2022-10-24T01:49:35.620Z,1007.04
2022-10-24T01:50:35.580Z,1006.98
2022-10-24T01:51:35.585Z,1006.90
2022-10-24T01:52:35.564Z,1006.91
2022-10-24T01:53:35.596Z,1006.85
2022-10-24T01:54:35.574Z,1006.91
2022-10-24T01:55:35.536Z,1006.85
2022-10-24T01:56:35.514Z,1006.80
2022-10-24T01:57:35.497Z,1006.80
2022-10-24T01:58:35.580Z,1006.79
2022-10-24T01:59:35.536Z,1006.82
2022-10-24T02:00:35.618Z,1006.88
2022-10-24T02:01:35.554Z,1006.96
2022-10-24T02:02:35.445Z,1006.92
2022-10-24T02:03:35.442Z,1006.88
2022-10-24T02:04:35.510Z,1006.88
2022-10-24T02:05:35.463Z,1006.76
2022-10-24T02:06:35.505Z,1006.75
2022-10-24T02:07:35.472Z,1006.74
2022-10-24T02:08:35.439Z,1006.67
2022-10-24T02:09:35.408Z,1006.61
2022-10-24T02:10:35.356Z,1006.58
2022-10-24T02:11:35.384Z,1006.49
2022-10-24T02:12:35.421Z,1006.41
2022-10-24T02:13:35.336Z,1006.45
2022-10-24T02:14:35.329Z,1006.42
2022-10-24T02:15:35.321Z,1006.38
2022-10-24T02:16:35.317Z,1006.38
2022-10-24T02:17:35.304Z,1006.35
2022-10-24T02:18:35.305Z,1006.21
2022-10-24T02:19:35.294Z,1006.18
2022-10-24T02:20:35.255Z,1006.15
2022-10-24T02:21:35.247Z,1006.12
2022-10-24T02:22:35.273Z,1006.04
2022-10-24T02:23:35.220Z,1006.00
2022-10-24T02:24:35.230Z,1005.89
2022-10-24T02:25:35.265Z,1005.90
2022-10-24T02:26:35.214Z,1005.90
2022-10-24T02:27:35.188Z,1005.94
2022-10-24T02:28:35.214Z,1005.97
2022-10-24T02:29:35.159Z,1005.87
2022-10-24T02:30:35.155Z,1006.01
2022-10-24T02:31:35.145Z,1005.96
2022-10-24T02:32:35.130Z,1006.01
2022-10-24T02:33:35.117Z,1006.06
2022-10-24T02:34:35.149Z,1006.20
2022-10-24T02:35:35.093Z,1006.24
2022-10-24T02:36:35.092Z,1006.38
2022-10-24T02:37:35.092Z,1006.40
2022-10-24T02:38:35.045Z,1006.53
2022-10-24T02:39:35.068Z,1006.55
2022-10-24T02:40:35.050Z,1006.63
2022-10-24T02:41:35.040Z,1006.65
2022-10-24T02:42:35.028Z,1006.67
2022-10-24T02:43:35.015Z,1006.79
2022-10-24T02:44:34.997Z,1006.91
2022-10-24T02:45:35.008Z,1006.84
2022-10-24T02:46:34.979Z,1006.76
2022-10-24T02:47:34.959Z,1006.77
2022-10-24T02:48:34.954Z,1006.84
2022-10-24T02:49:34.929Z,1006.82
2022-10-24T02:50:34.923Z,1006.87
2022-10-24T02:51:34.939Z,1006.78
2022-10-24T02:52:34.919Z,1006.73
2022-10-24T02:53:34.889Z,1006.81
2022-10-24T02:54:34.892Z,1006.81
2022-10-24T02:55:34.887Z,1006.80
2022-10-24T02:56:34.857Z,1006.84
2022-10-24T02:57:34.873Z,1006.75
2022-10-24T02:58:34.836Z,1006.75
2022-10-24T02:59:34.824Z,1006.84
2022-10-24T03:00:34.888Z,1006.87
2022-10-24T03:01:34.842Z,1006.92
2022-10-24T03:02:34.838Z,1006.89
2022-10-24T03:03:34.790Z,1006.91
2022-10-24T03:04:34.770Z,1006.86
2022-10-24T03:05:34.751Z,1006.90
2022-10-24T03:06:34.807Z,1006.89
2022-10-24T03:07:34.778Z,1006.87
2022-10-24T03:08:34.721Z,1006.83
2022-10-24T03:09:34.747Z,1006.82
2022-10-24T03:10:34.711Z,1006.87
2022-10-24T03:11:34.695Z,1006.74
2022-10-24T03:12:34.704Z,1006.72
2022-10-24T03:13:34.674Z,1006.71
2022-10-24T03:14:34.666Z,1006.66
2022-10-24T03:15:34.685Z,1006.73
2022-10-24T03:16:34.665Z,1006.65
2022-10-24T03:17:34.730Z,1006.65
2022-10-24T03:18:34.647Z,1006.59
2022-10-24T03:19:34.615Z,1006.68
2022-10-24T03:20:34.617Z,1006.74
2022-10-24T03:21:34.630Z,1006.80
2022-10-24T03:22:34.642Z,1006.78
2022-10-24T03:23:34.594Z,1006.69
2022-10-24T03:24:43.749Z,1006.71
2022-10-24T03:25:35.540Z,1006.77
2022-10-24T03:26:34.531Z,1006.88
2022-10-24T03:27:34.570Z,1006.96
2022-10-24T03:28:34.508Z,1006.99
2022-10-24T03:29:34.507Z,1007.06
2022-10-24T03:30:34.550Z,1007.03
2022-10-24T03:31:34.470Z,1007.02
2022-10-24T03:32:34.643Z,1007.04
2022-10-24T03:33:34.468Z,1007.00
2022-10-24T03:34:34.443Z,1006.98
2022-10-24T03:35:34.430Z,1007.01
2022-10-24T03:36:34.424Z,1007.00
2022-10-24T03:37:34.410Z,1007.00
2022-10-24T03:38:34.400Z,1007.07
2022-10-24T03:39:34.419Z,1006.99
2022-10-24T03:40:34.448Z,1007.04
2022-10-24T03:41:34.398Z,1006.99
2022-10-24T03:42:34.366Z,1007.00
2022-10-24T03:43:34.334Z,1007.05
2022-10-24T03:44:34.380Z,1007.02
2022-10-24T03:45:34.319Z,1006.98
2022-10-24T03:46:34.302Z,1006.96
2022-10-24T03:47:34.283Z,1006.90
2022-10-24T03:48:34.287Z,1006.92
2022-10-24T03:49:34.286Z,1006.92
2022-10-24T03:50:34.255Z,1007.00
2022-10-24T03:51:34.257Z,1006.96
2022-10-24T03:52:34.256Z,1007.01
2022-10-24T03:53:34.254Z,1006.99
2022-10-24T03:54:34.228Z,1006.93
2022-10-24T03:55:34.226Z,1006.95
2022-10-24T03:56:34.205Z,1007.12
2022-10-24T03:57:34.185Z,1007.04
2022-10-24T03:58:34.185Z,1007.04
2022-10-24T03:59:34.164Z,1006.98
2022-10-24T04:00:34.157Z,1006.93
2022-10-24T04:01:34.290Z,1006.97
2022-10-24T04:02:34.141Z,1006.92
2022-10-24T04:03:34.129Z,1006.95
2022-10-24T04:04:34.123Z,1006.91
2022-10-24T04:05:34.144Z,1006.90
2022-10-24T04:06:36.436Z,1006.92
2022-10-24T04:07:34.078Z,1006.93
2022-10-24T04:08:34.069Z,1006.98
2022-10-24T04:09:34.076Z,1006.97
2022-10-24T04:10:34.049Z,1006.99
2022-10-24T04:11:34.035Z,1007.03
2022-10-24T04:12:34.058Z,1006.92
2022-10-24T04:13:34.045Z,1006.95
2022-10-24T04:14:34.023Z,1006.94
2022-10-24T04:15:33.981Z,1006.92
2022-10-24T04:16:33.988Z,1006.90
2022-10-24T04:17:33.995Z,1006.92
2022-10-24T04:18:33.990Z,1006.91
2022-10-24T04:19:33.989Z,1006.83
2022-10-24T04:20:33.945Z,1006.81
2022-10-24T04:21:33.942Z,1006.77
2022-10-24T04:22:33.941Z,1006.84
2022-10-24T04:23:33.915Z,1006.84
2022-10-24T04:24:33.932Z,1006.81
2022-10-24T04:25:33.883Z,1006.80
2022-10-24T04:26:33.874Z,1006.83
2022-10-24T04:27:33.871Z,1006.80
2022-10-24T04:28:33.906Z,1006.85
2022-10-24T04:29:33.851Z,1006.83
2022-10-24T04:30:33.891Z,1006.89
2022-10-24T04:31:33.823Z,1006.88
2022-10-24T04:32:33.813Z,1006.95
2022-10-24T04:33:33.813Z,1006.88
2022-10-24T04:34:33.814Z,1006.97
2022-10-24T04:35:33.783Z,1006.90
2022-10-24T04:36:33.796Z,1006.92
2022-10-24T04:37:33.772Z,1006.89
2022-10-24T04:38:33.847Z,1006.86
2022-10-24T04:39:33.770Z,1006.99
2022-10-24T04:40:33.747Z,1006.90
2022-10-24T04:41:33.710Z,1006.93
2022-10-24T04:42:33.740Z,1006.93
2022-10-24T04:43:33.676Z,1006.95
2022-10-24T04:44:33.666Z,1006.92
2022-10-24T04:45:33.667Z,1006.91
2022-10-24T04:46:33.650Z,1006.98
2022-10-24T04:47:33.650Z,1006.94
2022-10-24T04:48:33.737Z,1007.06
2022-10-24T04:49:33.639Z,1006.96
2022-10-24T04:50:33.597Z,1007.00
2022-10-24T04:51:33.601Z,1006.96
2022-10-24T04:52:33.580Z,1006.89
2022-10-24T04:53:33.602Z,1006.86
2022-10-24T04:54:33.610Z,1006.85
2022-10-24T04:55:33.590Z,1006.85
2022-10-24T04:56:33.550Z,1006.83
2022-10-24T04:57:33.551Z,1006.88
2022-10-24T04:58:33.521Z,1006.87
2022-10-24T04:59:33.866Z,1006.93
2022-10-24T05:00:33.508Z,1006.87
2022-10-24T05:01:33.588Z,1006.88
2022-10-24T05:02:33.547Z,1006.83
2022-10-24T05:03:33.491Z,1006.82
2022-10-24T05:04:33.493Z,1006.79
2022-10-24T05:05:33.453Z,1006.79
2022-10-24T05:06:33.455Z,1006.87
2022-10-24T05:07:33.425Z,1006.80
2022-10-24T05:08:33.416Z,1006.84
2022-10-24T05:09:33.416Z,1006.86
2022-10-24T05:10:33.414Z,1006.85
2022-10-24T05:11:33.387Z,1006.84
2022-10-24T05:12:33.385Z,1006.89
2022-10-24T05:13:36.567Z,1006.93
2022-10-24T05:14:33.344Z,1006.87
2022-10-24T05:15:34.082Z,1006.86
2022-10-24T05:16:33.344Z,1006.86
2022-10-24T05:17:41.216Z,1006.84
2022-10-24T05:18:39.807Z,1006.87
2022-10-24T05:19:37.985Z,1006.95
2022-10-24T05:21:38.017Z,1006.90
2022-10-24T05:22:33.256Z,1006.93
2022-10-24T05:23:33.268Z,1006.83
2022-10-24T05:24:33.261Z,1006.82
2022-10-24T05:25:33.243Z,1006.81
2022-10-24T05:26:33.206Z,1006.81
2022-10-24T05:27:33.249Z,1006.80
2022-10-24T05:28:33.207Z,1006.84
2022-10-24T05:29:33.414Z,1006.83
2022-10-24T05:30:33.197Z,1006.88
2022-10-24T05:31:33.202Z,1006.83
2022-10-24T05:32:34.856Z,1006.77
2022-10-24T05:33:33.191Z,1006.78
2022-10-24T05:34:33.128Z,1006.83
2022-10-24T05:35:33.114Z,1006.82
2022-10-24T05:36:33.111Z,1006.83
2022-10-24T05:37:33.119Z,1006.83
2022-10-24T05:38:33.097Z,1006.88
2022-10-24T05:39:33.129Z,1006.97
2022-10-24T05:40:33.437Z,1006.95
2022-10-24T05:41:33.056Z,1006.90
2022-10-24T05:42:33.042Z,1006.97
2022-10-24T05:43:33.020Z,1006.97
2022-10-24T05:44:33.011Z,1006.94
2022-10-24T05:45:35.191Z,1007.03
2022-10-24T05:46:33.525Z,1006.97
2022-10-24T05:47:33.063Z,1006.98
2022-10-24T05:48:32.970Z,1007.01
2022-10-24T05:49:32.951Z,1006.96
2022-10-24T05:50:33.168Z,1007.00
2022-10-24T05:51:32.976Z,1006.94
2022-10-24T05:52:32.932Z,1006.98
2022-10-24T05:53:33.132Z,1006.88
2022-10-24T05:54:42.574Z,1006.83
2022-10-24T05:55:33.925Z,1006.94
2022-10-24T05:56:33.106Z,1006.94
2022-10-24T05:57:33.555Z,1006.89
2022-10-24T05:58:32.874Z,1006.96
2022-10-24T05:59:33.250Z,1006.87
2022-10-24T06:00:32.846Z,1006.92
2022-10-24T06:01:32.925Z,1006.93
2022-10-24T06:02:33.051Z,1006.96
2022-10-24T06:03:32.834Z,1007.02
2022-10-24T06:04:32.839Z,1006.96
2022-10-24T06:05:32.795Z,1006.94
2022-10-24T06:06:32.784Z,1006.98
2022-10-24T06:07:32.776Z,1006.98
2022-10-24T06:08:32.810Z,1006.92
2022-10-24T06:09:32.740Z,1006.86
2022-10-24T06:10:32.741Z,1006.84
2022-10-24T06:11:32.736Z,1006.83
2022-10-24T06:12:32.726Z,1006.85
2022-10-24T06:13:35.371Z,1006.83
2022-10-24T06:14:32.736Z,1006.86
2022-10-24T06:15:32.674Z,1006.86
2022-10-24T06:16:32.660Z,1006.79
2022-10-24T06:17:32.659Z,1006.78
2022-10-24T06:18:32.651Z,1006.77
2022-10-24T06:19:32.644Z,1006.83
2022-10-24T06:20:32.659Z,1006.82
2022-10-24T06:21:32.632Z,1006.83
2022-10-24T06:22:32.613Z,1006.83
2022-10-24T06:23:32.609Z,1006.86
2022-10-24T06:24:32.582Z,1006.86
2022-10-24T06:25:32.568Z,1006.88
2022-10-24T06:26:32.660Z,1006.90
2022-10-24T06:27:32.554Z,1006.91
2022-10-24T06:28:32.549Z,1006.90
2022-10-24T06:29:32.539Z,1006.94
2022-10-24T06:30:32.539Z,1006.95
2022-10-24T06:31:32.493Z,1006.94
2022-10-24T06:32:32.533Z,1006.96
2022-10-24T06:33:32.523Z,1006.94
2022-10-24T06:34:32.473Z,1006.99
2022-10-24T06:35:32.452Z,1007.04
2022-10-24T06:36:32.512Z,1007.07
2022-10-24T06:37:32.431Z,1007.09
2022-10-24T06:38:32.544Z,1007.09
2022-10-24T06:39:32.419Z,1007.15
2022-10-24T06:40:32.421Z,1007.06
2022-10-24T06:41:32.403Z,1007.10
2022-10-24T06:42:32.375Z,1007.08
2022-10-24T06:43:32.434Z,1007.05
2022-10-24T06:44:32.397Z,1007.06
2022-10-24T06:45:32.346Z,1007.05
2022-10-24T06:46:32.342Z,1006.98
2022-10-24T06:47:32.519Z,1007.06
2022-10-24T06:48:32.340Z,1007.06
2022-10-24T06:49:32.313Z,1007.08
2022-10-24T06:50:32.326Z,1007.10
2022-10-24T06:51:32.327Z,1007.11
2022-10-24T06:52:32.299Z,1007.08
2022-10-24T06:53:32.271Z,1007.13
2022-10-24T06:54:32.517Z,1007.18
2022-10-24T06:55:32.242Z,1007.12
2022-10-24T06:56:32.261Z,1007.18
2022-10-24T06:57:32.430Z,1007.21
2022-10-24T06:58:32.228Z,1007.14
2022-10-24T06:59:32.202Z,1007.18
2022-10-24T07:00:32.344Z,1007.11
2022-10-24T07:01:32.410Z,1007.11
2022-10-24T07:02:32.250Z,1007.07
2022-10-24T07:03:32.772Z,1007.06
2022-10-24T07:04:32.172Z,1007.04
2022-10-24T07:05:32.130Z,1007.04
2022-10-24T07:06:32.133Z,1007.03
2022-10-24T07:07:32.135Z,1007.06
2022-10-24T07:08:32.136Z,1007.06
2022-10-24T07:09:32.139Z,1007.07
2022-10-24T07:10:32.413Z,1007.10
2022-10-24T07:11:32.076Z,1007.07
2022-10-24T07:12:32.076Z,1007.08
2022-10-24T07:13:32.389Z,1006.94
2022-10-24T07:14:32.138Z,1007.07
2022-10-24T07:15:32.094Z,1006.97
2022-10-24T07:16:32.013Z,1006.96
2022-10-24T07:17:32.047Z,1006.96
2022-10-24T07:18:32.007Z,1006.99
2022-10-24T07:19:35.217Z,1006.92
2022-10-24T07:20:33.048Z,1006.96
2022-10-24T07:21:32.035Z,1006.90
2022-10-24T07:22:32.759Z,1007.00
2022-10-24T07:23:31.935Z,1007.05
2022-10-24T07:24:31.948Z,1007.08
2022-10-24T07:25:32.199Z,1007.11
2022-10-24T07:26:31.930Z,1007.17
2022-10-24T07:27:31.941Z,1007.10
2022-10-24T07:28:32.007Z,1007.15
2022-10-24T07:29:31.875Z,1007.08
2022-10-24T07:30:31.862Z,1007.11
2022-10-24T07:31:31.966Z,1007.14
2022-10-24T07:32:31.871Z,1007.05
2022-10-24T07:33:31.847Z,1007.04
2022-10-24T07:34:31.928Z,1007.11
2022-10-24T07:35:31.810Z,1006.99
2022-10-24T07:36:31.787Z,1007.11
2022-10-24T07:37:31.881Z,1007.04
2022-10-24T07:38:31.841Z,1007.03
2022-10-24T07:39:31.766Z,1006.97
2022-10-24T07:40:31.745Z,1006.91
2022-10-24T07:41:31.745Z,1006.90
2022-10-24T07:42:31.732Z,1006.87
2022-10-24T07:43:31.735Z,1006.85
2022-10-24T07:44:31.733Z,1006.91
2022-10-24T07:45:31.694Z,1006.89
2022-10-24T07:46:31.720Z,1006.86
2022-10-24T07:47:31.673Z,1006.83
2022-10-24T07:48:31.663Z,1006.80
2022-10-24T07:49:33.684Z,1006.78
2022-10-24T07:50:31.691Z,1006.82
2022-10-24T07:51:31.627Z,1006.86
2022-10-24T07:52:31.672Z,1006.86
2022-10-24T07:53:31.612Z,1006.76
2022-10-24T07:54:34.553Z,1006.73
2022-10-24T07:55:32.614Z,1006.78
2022-10-24T07:56:31.564Z,1006.82
2022-10-24T07:57:31.565Z,1006.84
2022-10-24T07:58:31.548Z,1006.82
2022-10-24T07:59:41.797Z,1006.86
2022-10-24T08:00:32.537Z,1006.89
2022-10-24T08:01:31.606Z,1006.93
2022-10-24T08:02:31.531Z,1006.91
2022-10-24T08:03:31.509Z,1006.88
2022-10-24T08:04:31.485Z,1006.89
2022-10-24T08:05:31.565Z,1006.89
2022-10-24T08:06:31.466Z,1006.87
2022-10-24T08:07:31.509Z,1006.86
2022-10-24T08:08:37.138Z,1006.89
2022-10-24T08:09:32.442Z,1006.97
2022-10-24T08:10:31.454Z,1006.96
2022-10-24T08:11:32.442Z,1006.97
2022-10-24T08:12:31.402Z,1006.97
2022-10-24T08:13:31.452Z,1007.03
2022-10-24T08:14:31.376Z,1006.98
2022-10-24T08:15:31.361Z,1006.94
2022-10-24T08:16:31.350Z,1006.92
2022-10-24T08:17:31.355Z,1006.94
2022-10-24T08:18:32.109Z,1007.00
2022-10-24T08:19:31.363Z,1006.96
2022-10-24T08:20:31.323Z,1006.86
2022-10-24T08:21:31.310Z,1006.88
2022-10-24T08:22:31.289Z,1006.91
2022-10-24T08:23:31.269Z,1006.91
2022-10-24T08:24:31.250Z,1006.90
2022-10-24T08:25:31.300Z,1006.87
2022-10-24T08:26:31.251Z,1006.93
2022-10-24T08:27:31.282Z,1006.97
2022-10-24T08:28:31.224Z,1007.08
2022-10-24T08:29:31.216Z,1006.94
2022-10-24T08:30:31.208Z,1006.93
2022-10-24T08:31:31.246Z,1006.98
2022-10-24T08:32:31.174Z,1007.02
2022-10-24T08:33:31.223Z,1007.00
2022-10-24T08:34:31.197Z,1007.03
2022-10-24T08:35:31.165Z,1007.01
2022-10-24T08:36:31.154Z,1007.02
2022-10-24T08:37:31.218Z,1007.01
2022-10-24T08:38:31.120Z,1007.08
2022-10-24T08:39:31.166Z,1007.06
2022-10-24T08:40:31.087Z,1007.07
2022-10-24T08:41:31.074Z,1007.08
2022-10-24T08:42:31.065Z,1007.07
2022-10-24T08:43:31.075Z,1007.01
2022-10-24T08:44:31.061Z,1007.08
2022-10-24T08:45:31.055Z,1007.05
2022-10-24T08:46:31.018Z,1007.10
2022-10-24T08:47:31.119Z,1007.07
2022-10-24T08:48:31.121Z,1007.05
2022-10-24T08:49:31.107Z,1007.11
2022-10-24T08:50:31.075Z,1007.06
2022-10-24T08:51:30.981Z,1007.03
2022-10-24T08:52:30.954Z,1007.03
2022-10-24T08:53:31.066Z,1007.02
2022-10-24T08:54:30.946Z,1006.99
2022-10-24T08:55:44.486Z,1007.04
2022-10-24T08:56:31.913Z,1007.07
2022-10-24T08:57:31.004Z,1007.05
2022-10-24T08:58:30.903Z,1007.02
2022-10-24T08:59:30.918Z,1007.10
2022-10-24T09:00:30.891Z,1007.07
2022-10-24T09:01:31.138Z,1007.15
2022-10-24T09:02:30.987Z,1007.09
2022-10-24T09:03:51.218Z,1007.04
2022-10-24T09:04:31.823Z,1007.07
2022-10-24T09:05:30.884Z,1006.96
2022-10-24T09:06:30.839Z,1007.04
2022-10-24T09:07:30.813Z,1007.00
2022-10-24T09:08:30.811Z,1007.05
2022-10-24T09:09:30.823Z,1007.02
2022-10-24T09:10:30.786Z,1007.05
2022-10-24T09:11:30.757Z,1007.00
2022-10-24T09:12:30.830Z,1006.97
2022-10-24T09:13:30.733Z,1006.94
2022-10-24T09:14:30.725Z,1006.92
2022-10-24T09:15:30.714Z,1006.96
2022-10-24T09:16:30.693Z,1006.95
2022-10-24T09:17:30.707Z,1006.99
2022-10-24T09:18:30.676Z,1006.95
2022-10-24T09:19:30.689Z,1006.96
2022-10-24T09:20:30.659Z,1007.00
2022-10-24T09:21:30.650Z,1006.99
2022-10-24T09:22:30.737Z,1006.97
2022-10-24T09:23:30.637Z,1006.98
2022-10-24T09:24:30.641Z,1006.97
2022-10-24T09:25:30.606Z,1007.08
2022-10-24T09:26:30.599Z,1007.01
2022-10-24T09:27:30.632Z,1006.87
2022-10-24T09:28:30.570Z,1006.87
2022-10-24T09:29:30.559Z,1006.89
2022-10-24T09:30:33.260Z,1006.93
2022-10-24T09:31:30.528Z,1006.91
2022-10-24T09:32:30.563Z,1006.91
2022-10-24T09:33:30.529Z,1006.96
2022-10-24T09:34:30.491Z,1006.96
2022-10-24T09:35:30.543Z,1006.94
2022-10-24T09:36:30.468Z,1006.95
2022-10-24T09:37:34.245Z,1006.91
2022-10-24T09:38:32.020Z,1006.91
2022-10-24T09:39:30.447Z,1006.85
2022-10-24T09:40:30.430Z,1006.88
2022-10-24T09:41:30.433Z,1006.91
2022-10-24T09:42:30.409Z,1006.91
2022-10-24T09:43:30.468Z,1006.90
2022-10-24T09:44:30.387Z,1006.87
2022-10-24T09:45:30.388Z,1006.82
2022-10-24T09:46:30.361Z,1006.81
2022-10-24T09:47:30.361Z,1006.85
2022-10-24T09:48:30.640Z,1006.80
2022-10-24T09:49:30.344Z,1006.86
2022-10-24T09:50:30.330Z,1006.87
2022-10-24T09:51:30.344Z,1006.90
2022-10-24T09:52:30.308Z,1006.92
2022-10-24T09:53:30.306Z,1006.88
2022-10-24T09:54:30.349Z,1006.85
2022-10-24T09:55:30.270Z,1006.87
2022-10-24T09:56:30.264Z,1006.80
2022-10-24T09:57:31.593Z,1006.86
2022-10-24T09:58:30.235Z,1006.81
2022-10-24T09:59:30.225Z,1006.80
2022-10-24T10:00:30.349Z,1006.79
2022-10-24T10:01:30.331Z,1006.78
2022-10-24T10:02:30.286Z,1006.89
2022-10-24T10:03:30.189Z,1006.81
2022-10-24T10:04:30.207Z,1006.88
2022-10-24T10:05:30.225Z,1006.82
2022-10-24T10:06:30.151Z,1006.84
2022-10-24T10:07:30.148Z,1006.84
2022-10-24T10:08:30.125Z,1006.79
2022-10-24T10:09:30.153Z,1006.92
2022-10-24T10:10:30.116Z,1006.89
2022-10-24T10:11:30.132Z,1006.80
2022-10-24T10:12:30.109Z,1006.86
2022-10-24T10:13:30.071Z,1006.81
2022-10-24T10:14:30.064Z,1006.79
2022-10-24T10:15:30.079Z,1006.84
2022-10-24T10:16:30.096Z,1006.89
2022-10-24T10:17:30.041Z,1006.90
2022-10-24T10:18:30.039Z,1006.87
2022-10-24T10:19:30.032Z,1006.86
2022-10-24T10:20:30.009Z,1006.84
2022-10-24T10:21:29.991Z,1006.84
2022-10-24T10:22:30.039Z,1006.87
2022-10-24T10:23:29.963Z,1006.84
2022-10-24T10:24:29.972Z,1006.79
2022-10-24T10:25:29.956Z,1006.82
2022-10-24T10:26:30.001Z,1006.70
2022-10-24T10:27:29.921Z,1006.74
2022-10-24T10:28:29.954Z,1006.72
2022-10-24T10:29:29.918Z,1006.70
2022-10-24T10:30:29.898Z,1006.71
2022-10-24T10:31:29.878Z,1006.67
2022-10-24T10:32:29.876Z,1006.71
2022-10-24T10:33:29.946Z,1006.67
2022-10-24T10:34:29.874Z,1006.62
2022-10-24T10:35:29.855Z,1006.70
2022-10-24T10:36:29.834Z,1006.78
2022-10-24T10:37:29.818Z,1006.68
2022-10-24T10:38:29.837Z,1006.70
2022-10-24T10:39:29.794Z,1006.68
2022-10-24T10:40:29.795Z,1006.65
2022-10-24T10:41:29.794Z,1006.64
2022-10-24T10:42:29.804Z,1006.65
2022-10-24T10:43:29.756Z,1006.72
2022-10-24T10:44:29.727Z,1006.72
2022-10-24T10:45:29.717Z,1006.75
2022-10-24T10:46:29.725Z,1006.65
2022-10-24T10:47:29.737Z,1006.64
2022-10-24T10:48:29.760Z,1006.68
2022-10-24T10:49:29.743Z,1006.69
2022-10-24T10:50:29.674Z,1006.67
2022-10-24T10:51:29.683Z,1006.67
2022-10-24T10:52:29.640Z,1006.69
2022-10-24T10:53:29.660Z,1006.64
2022-10-24T10:54:29.647Z,1006.66
2022-10-24T10:55:29.627Z,1006.70
2022-10-24T10:56:29.635Z,1006.74
2022-10-24T10:57:29.605Z,1006.75
2022-10-24T10:58:29.666Z,1006.73
2022-10-24T10:59:29.773Z,1006.66
2022-10-24T11:00:29.668Z,1006.66
2022-10-24T11:01:29.653Z,1006.67
2022-10-24T11:02:29.648Z,1006.67
2022-10-24T11:03:29.551Z,1006.68
2022-10-24T11:04:29.550Z,1006.67
2022-10-24T11:05:29.505Z,1006.69
2022-10-24T11:06:29.845Z,1006.70
2022-10-24T11:07:29.523Z,1006.67
2022-10-24T11:08:29.464Z,1006.71
2022-10-24T11:09:29.528Z,1006.71
2022-10-24T11:10:29.527Z,1006.57
2022-10-24T11:11:29.498Z,1006.59
2022-10-24T11:12:29.445Z,1006.66
2022-10-24T11:13:33.691Z,1006.59
2022-10-24T11:14:29.455Z,1006.62
2022-10-24T11:15:29.390Z,1006.60
2022-10-24T11:16:29.412Z,1006.61
2022-10-24T11:17:29.452Z,1006.51
2022-10-24T11:18:31.645Z,1006.53
2022-10-24T11:19:30.343Z,1006.59
2022-10-24T11:20:29.377Z,1006.50
2022-10-24T11:21:29.383Z,1006.52
2022-10-24T11:22:29.441Z,1006.44
2022-10-24T11:23:29.299Z,1006.45
2022-10-24T11:24:32.916Z,1006.54
2022-10-24T11:25:29.610Z,1006.58
2022-10-24T11:26:29.277Z,1006.61
2022-10-24T11:27:29.269Z,1006.55
2022-10-24T11:28:29.282Z,1006.54
2022-10-24T11:29:29.236Z,1006.48
2022-10-24T11:30:29.219Z,1006.49
2022-10-24T11:31:29.246Z,1006.49
2022-10-24T11:32:29.207Z,1006.44
2022-10-24T11:33:29.197Z,1006.48
2022-10-24T11:34:29.232Z,1006.50
2022-10-24T11:35:29.181Z,1006.48
2022-10-24T11:36:29.223Z,1006.51
2022-10-24T11:37:29.160Z,1006.48
2022-10-24T11:38:29.150Z,1006.52
2022-10-24T11:39:29.150Z,1006.45
2022-10-24T11:41:29.121Z,1006.46
2022-10-24T11:42:29.137Z,1006.47
2022-10-24T11:43:29.090Z,1006.40
2022-10-24T11:44:29.122Z,1006.39
2022-10-24T11:45:29.128Z,1006.50
2022-10-24T11:46:29.129Z,1006.42
2022-10-24T11:47:29.301Z,1006.48
2022-10-24T11:48:29.042Z,1006.40
2022-10-24T11:49:29.031Z,1006.34
2022-10-24T11:50:29.375Z,1006.36
2022-10-24T11:51:29.016Z,1006.41
2022-10-24T11:52:29.316Z,1006.32
2022-10-24T11:53:28.996Z,1006.33
2022-10-24T11:54:28.985Z,1006.36
2022-10-24T11:55:28.973Z,1006.39
2022-10-24T11:56:28.990Z,1006.38
2022-10-24T11:57:30.055Z,1006.41
2022-10-24T11:58:28.952Z,1006.40
2022-10-24T11:59:28.911Z,1006.48
2022-10-24T12:00:28.914Z,1006.38
2022-10-24T12:01:29.005Z,1006.41
2022-10-24T12:02:28.922Z,1006.37
2022-10-24T12:03:28.874Z,1006.41
2022-10-24T12:04:28.906Z,1006.39
2022-10-24T12:05:28.910Z,1006.38
2022-10-24T12:06:28.856Z,1006.37
2022-10-24T12:07:28.852Z,1006.39
2022-10-24T12:08:28.818Z,1006.33
2022-10-24T12:09:30.811Z,1006.32